Time;durP1;ratioP1;P1;durP2;ratioP2;P2;SDS_P1;SDS_P2;PMS_P1;PMS_P2;Temp;Humidity;BMP_temperature;BMP_pressure;BME280_temperature;BME280_humidity;BME280_pressure;Samples;Min_cycle;Max_cycle;Signal;HPM_P1;HPM_P2
2022/06/12 00:00:22;;;;;;;16.05;4.32;;;;;;;12.58;100.00;101694.19;5066144;28;20046;-74
2022/06/12 00:02:47;;;;;;;10.73;2.90;;;;;;;12.62;100.00;101690.22;5047784;28;20035;-75
2022/06/12 00:05:15;;;;;;;13.77;2.50;;;;;;;12.67;100.00;101674.50;5064851;28;20455;-74
2022/06/12 00:07:41;;;;;;;10.85;2.50;;;;;;;12.70;100.00;101659.13;5064604;28;20048;-75
2022/06/12 00:10:08;;;;;;;13.77;3.85;;;;;;;12.64;100.00;101653.41;5065876;28;20098;-74
2022/06/12 00:12:35;;;;;;;15.43;2.90;;;;;;;12.57;100.00;101679.13;5064856;28;20032;-74
2022/06/12 00:15:01;;;;;;;8.82;2.60;;;;;;;12.50;100.00;101678.00;5064780;28;20030;-75
2022/06/12 00:17:27;;;;;;;8.13;1.92;;;;;;;12.41;100.00;101681.63;5064637;28;20056;-75
2022/06/12 00:19:52;;;;;;;15.83;3.63;;;;;;;12.31;100.00;101680.84;5044266;28;20025;-75
2022/06/12 00:22:18;;;;;;;11.47;2.47;;;;;;;12.21;100.00;101692.44;5064177;28;20056;-74
2022/06/12 00:24:44;;;;;;;8.88;2.70;;;;;;;12.16;100.00;101693.91;5064670;28;20079;-74
2022/06/12 00:27:09;;;;;;;9.87;2.50;;;;;;;12.07;100.00;101684.09;5066080;28;20886;-74
2022/06/12 00:29:37;;;;;;;10.63;2.63;;;;;;;12.02;100.00;101695.25;5065523;28;20024;-77
2022/06/12 00:32:03;;;;;;;9.30;3.80;;;;;;;11.96;100.00;101693.16;5065627;28;20032;-76
2022/06/12 00:34:32;;;;;;;10.33;2.67;;;;;;;11.94;100.00;101708.50;5064239;28;20035;-74
2022/06/12 00:36:59;;;;;;;10.23;2.45;;;;;;;11.92;100.00;101708.66;5065580;28;20773;-74
2022/06/12 00:39:26;;;;;;;14.10;2.15;;;;;;;11.87;100.00;101704.69;5064212;28;20127;-74
2022/06/12 00:41:54;;;;;;;8.55;2.88;;;;;;;11.82;100.00;101703.34;5064395;28;20109;-75
2022/06/12 00:44:26;;;;;;;13.75;2.60;;;;;;;11.76;100.00;101697.72;5065608;28;20716;-74
2022/06/12 00:46:57;;;;;;;9.93;1.95;;;;;;;11.81;100.00;101700.78;5065703;28;20051;-76
2022/06/12 00:49:47;;;;;;;11.18;2.60;;;;;;;11.74;100.00;101697.03;5063749;28;20036;-76
2022/06/12 00:52:32;;;;;;;6.50;2.75;;;;;;;11.70;100.00;101700.97;5047699;28;20033;-76
2022/06/12 00:55:10;;;;;;;9.57;3.00;;;;;;;11.64;100.00;101707.75;5063829;28;20477;-75
2022/06/12 00:57:35;;;;;;;10.48;2.22;;;;;;;11.64;100.00;101712.28;5056637;28;20039;-73
2022/06/12 01:00:07;;;;;;;10.07;2.90;;;;;;;11.63;100.00;101706.06;5063978;28;20107;-76
2022/06/12 01:02:34;;;;;;;7.85;2.53;;;;;;;11.56;100.00;101710.31;5056626;28;20031;-74
2022/06/12 01:07:51;;;;;;;12.10;3.00;;;;;;;11.42;100.00;101711.63;5063975;28;20374;-75
2022/06/12 01:10:19;;;;;;;8.60;2.72;;;;;;;11.43;100.00;101707.13;5064025;28;20405;-74
2022/06/12 01:12:50;;;;;;;4.63;2.38;;;;;;;11.45;100.00;101716.69;5064135;28;20982;-76
2022/06/12 01:15:21;;;;;;;8.73;2.40;;;;;;;11.42;100.00;101716.97;5065231;28;20036;-75
2022/06/12 01:17:47;;;;;;;10.75;2.55;;;;;;;11.39;100.00;101718.09;5065192;28;20078;-75
2022/06/12 01:20:15;;;;;;;;;;;;;;;11.35;100.00;101714.00;5047428;28;20021;-74
2022/06/12 01:22:47;;;;;;;13.00;2.60;;;;;;;11.30;100.00;101718.94;5065475;28;20025;-76
2022/06/12 01:25:21;;;;;;;11.98;2.88;;;;;;;11.26;100.00;101714.03;5047193;28;20028;-74
2022/06/12 01:28:24;;;;;;;9.27;3.08;;;;;;;11.25;100.00;101715.03;5063951;28;20170;-74
2022/06/12 01:31:16;;;;;;;10.27;2.38;;;;;;;11.20;100.00;101723.47;5058535;28;20070;-74
2022/06/12 01:33:48;;;;;;;10.38;3.70;;;;;;;11.16;100.00;101722.06;5057039;28;20044;-74
2022/06/12 01:36:56;;;;;;;11.50;2.70;;;;;;;11.10;100.00;101711.97;5063900;28;20116;-73
2022/06/12 01:39:37;;;;;;;12.27;2.30;;;;;;;11.01;100.00;101702.97;5043645;28;20045;-74
2022/06/12 01:42:40;;;;;;;9.75;2.35;;;;;;;11.01;100.00;101702.13;5065083;28;20037;-74
2022/06/12 01:45:18;;;;;;;12.73;2.90;;;;;;;10.97;100.00;101712.25;5040814;28;20036;-75
2022/06/12 01:47:46;;;;;;;8.30;2.50;;;;;;;10.92;100.00;101703.81;5064713;28;20041;-74
2022/06/12 01:50:17;;;;;;;9.82;2.92;;;;;;;10.84;100.00;101701.00;5064618;28;20486;-74
2022/06/12 01:52:45;;;;;;;9.10;3.22;;;;;;;10.81;100.00;101704.78;5066563;28;20034;-75
2022/06/12 01:55:17;;;;;;;11.05;3.28;;;;;;;10.76;100.00;101707.03;5068266;28;20103;-74
2022/06/12 01:57:42;;;;;;;11.30;3.25;;;;;;;10.70;100.00;101715.59;5067247;28;20036;-75
2022/06/12 02:00:15;;;;;;;11.13;2.90;;;;;;;10.66;100.00;101714.22;5068348;28;20020;-74
2022/06/12 02:02:52;;;;;;;13.63;3.42;;;;;;;10.64;100.00;101721.53;5058738;28;20039;-77
2022/06/12 02:05:23;;;;;;;13.30;3.20;;;;;;;10.57;100.00;101706.03;5066733;28;20036;-74
2022/06/12 02:08:00;;;;;;;12.45;3.40;;;;;;;10.56;100.00;101703.53;5067904;28;20131;-75
2022/06/12 02:10:35;;;;;;;8.50;2.58;;;;;;;10.53;100.00;101709.13;5064161;28;20037;-75
2022/06/12 02:13:12;;;;;;;12.55;2.75;;;;;;;10.51;100.00;101708.41;5063926;28;20119;-75
2022/06/12 02:15:53;;;;;;;16.30;3.78;;;;;;;10.48;100.00;101703.38;5056097;28;20028;-75
2022/06/12 02:18:34;;;;;;;12.40;2.90;;;;;;;10.44;100.00;101697.47;5044645;28;20124;-75
2022/06/12 02:21:05;;;;;;;6.50;2.33;;;;;;;10.41;100.00;101703.06;5064176;28;20064;-74
2022/06/12 02:23:40;;;;;;;14.25;3.30;;;;;;;10.35;100.00;101698.31;5063544;28;20079;-75
2022/06/12 02:26:11;;;;;;;9.77;2.80;;;;;;;10.34;100.00;101693.94;5065983;28;20055;-75
2022/06/12 02:28:42;;;;;;;11.07;3.72;;;;;;;10.30;100.00;101677.38;5042061;28;20431;-74
2022/06/12 02:31:15;;;;;;;10.75;3.08;;;;;;;10.28;100.00;101681.13;5065562;28;20059;-76
2022/06/12 02:33:45;;;;;;;13.27;3.30;;;;;;;10.22;100.00;101681.66;5058813;28;20032;-75
2022/06/12 02:36:22;;;;;;;9.27;3.22;;;;;;;10.10;100.00;101684.44;5067353;28;20028;-76
2022/06/12 02:38:53;;;;;;;19.88;3.92;;;;;;;10.11;100.00;101694.16;5066558;28;20141;-75
2022/06/12 02:41:25;;;;;;;13.90;3.47;;;;;;;10.05;100.00;101699.19;5066616;28;20111;-76
2022/06/12 02:43:55;;;;;;;17.70;3.65;;;;;;;10.13;100.00;101692.16;5065384;28;20032;-75
2022/06/12 02:46:39;;;;;;;14.88;3.92;;;;;;;10.00;100.00;101688.06;5048856;28;20484;-75
2022/06/12 02:49:06;;;;;;;6.93;2.83;;;;;;;9.93;100.00;101685.09;5066931;28;20028;-74
2022/06/12 02:51:56;;;;;;;7.90;3.00;;;;;;;9.92;100.00;101694.91;5066636;28;20028;-75
2022/06/12 02:54:41;;;;;;;6.85;2.20;;;;;;;9.91;100.00;101695.06;5065002;28;20036;-75
2022/06/12 02:57:15;;;;;;;10.32;3.20;;;;;;;9.88;100.00;101688.19;5066891;28;20028;-77
2022/06/12 02:59:48;;;;;;;12.32;3.05;;;;;;;9.83;100.00;101677.06;5059655;28;20039;-74
2022/06/12 03:02:27;;;;;;;8.25;2.58;;;;;;;9.80;100.00;101677.31;5064973;28;20037;-75
2022/06/12 03:05:07;;;;;;;13.10;2.92;;;;;;;9.79;100.00;101672.97;5065139;28;20078;-75
2022/06/12 03:07:33;;;;;;;12.60;3.35;;;;;;;9.78;100.00;101670.44;5064293;28;20086;-75
2022/06/12 03:10:03;;;;;;;5.95;2.70;;;;;;;9.79;100.00;101675.66;5066660;28;20089;-74
2022/06/12 03:12:29;;;;;;;9.65;3.33;;;;;;;9.77;100.00;101671.44;5081153;28;20106;-74
2022/06/12 03:14:55;;;;;;;8.77;2.30;;;;;;;9.73;100.00;101679.69;5064315;28;20836;-75
2022/06/12 03:17:22;;;;;;;11.43;3.03;;;;;;;9.78;100.00;101675.78;5065479;28;20024;-74
2022/06/12 03:19:54;;;;;;;12.70;3.42;;;;;;;9.79;100.00;101672.16;5066801;28;20542;-74
2022/06/12 03:22:40;;;;;;;10.52;2.97;;;;;;;9.79;100.00;101677.47;5057289;28;20825;-75
2022/06/12 03:25:25;;;;;;;7.57;2.80;;;;;;;9.83;100.00;101673.53;5066678;28;20500;-75
2022/06/12 03:28:09;;;;;;;13.20;3.13;;;;;;;9.83;100.00;101668.19;5040462;28;20124;-75
2022/06/12 03:30:47;;;;;;;12.52;2.83;;;;;;;9.84;100.00;101676.09;5058003;28;20028;-75
2022/06/12 03:33:42;;;;;;;8.77;3.85;;;;;;;9.85;100.00;101672.41;5064743;28;20119;-75
2022/06/12 03:36:37;;;;;;;11.40;2.60;;;;;;;9.87;100.00;101664.28;5065611;28;20032;-75
2022/06/12 03:39:22;;;;;;;11.75;2.72;;;;;;;9.90;100.00;101661.34;5065134;28;20028;-76
2022/06/12 03:41:56;;;;;;;11.13;3.25;;;;;;;9.96;100.00;101668.81;5059814;28;20028;-77
2022/06/12 03:44:52;;;;;;;6.72;2.70;;;;;;;9.98;100.00;101661.53;5056639;28;20275;-75
2022/06/12 03:47:36;;;;;;;13.88;3.72;;;;;;;10.04;100.00;101668.97;5066551;28;20036;-75
2022/06/12 03:50:17;;;;;;;9.18;3.60;;;;;;;10.11;100.00;101672.81;5066254;28;20047;-75
2022/06/12 03:52:45;;;;;;;8.88;2.80;;;;;;;10.21;100.00;101674.63;5042296;28;20052;-76
2022/06/12 03:58:24;;;;;;;11.80;3.72;;;;;;;10.53;100.00;101679.75;5066205;28;20037;-75
2022/06/12 04:00:51;;;;;;;12.75;3.70;;;;;;;10.63;100.00;101666.41;5064687;28;20190;-75
2022/06/12 04:03:33;;;;;;;19.67;3.85;;;;;;;10.85;100.00;101674.16;5064336;28;20035;-75
2022/06/12 04:06:07;;;;;;;11.07;2.92;;;;;;;11.03;100.00;101652.03;5064965;28;20032;-75
2022/06/12 04:08:48;;;;;;;10.55;5.18;;;;;;;11.17;100.00;101660.47;5056940;28;20063;-75
2022/06/12 04:11:16;;;;;;;17.70;3.60;;;;;;;11.25;100.00;101657.06;5065710;28;20043;-75
2022/06/12 04:13:42;;;;;;;16.17;4.30;;;;;;;11.38;100.00;101654.09;5065617;28;20059;-76
2022/06/12 04:16:22;;;;;;;19.95;4.65;;;;;;;11.51;100.00;101653.75;5065795;28;20397;-75
2022/06/12 04:18:48;;;;;;;8.50;3.13;;;;;;;11.61;100.00;101650.06;5064436;28;20085;-75
2022/06/12 04:21:27;;;;;;;13.57;3.38;;;;;;;11.78;100.00;101650.28;5064558;28;20477;-75
2022/06/12 04:24:04;;;;;;;12.30;3.75;;;;;;;11.94;100.00;101631.78;5065727;28;20029;-75
2022/06/12 04:26:49;;;;;;;13.75;3.80;;;;;;;12.17;100.00;101626.81;5056710;28;20042;-76
2022/06/12 04:29:15;;;;;;;11.25;3.83;;;;;;;12.27;100.00;101615.19;5064482;28;20036;-75
2022/06/12 04:31:44;;;;;;;16.87;3.07;;;;;;;12.43;100.00;101610.84;5065992;28;20397;-75
2022/06/12 04:34:22;;;;;;;18.40;3.20;;;;;;;12.62;100.00;101600.97;5065538;28;20814;-75
2022/06/12 04:36:55;;;;;;;15.57;4.40;;;;;;;12.78;100.00;101581.47;5065793;28;20032;-75
2022/06/12 04:39:23;;;;;;;14.25;3.63;;;;;;;13.02;100.00;101589.69;5064327;28;20032;-77
2022/06/12 04:41:49;;;;;;;12.65;3.70;;;;;;;13.08;100.00;101561.41;5047913;28;20115;-75
2022/06/12 04:44:15;;;;;;;19.48;4.78;;;;;;;13.16;100.00;101548.06;5047126;28;20059;-78
2022/06/12 04:46:43;;;;;;;14.45;3.25;;;;;;;13.31;100.00;101540.28;5064444;28;20481;-76
2022/06/12 04:49:13;;;;;;;18.48;3.33;;;;;;;13.43;100.00;101525.56;5065388;28;20035;-76
2022/06/12 04:51:39;;;;;;;15.43;3.85;;;;;;;13.53;100.00;101506.63;5063831;28;20481;-77
2022/06/12 04:54:05;;;;;;;20.33;5.53;;;;;;;13.74;100.00;101500.81;5064120;28;20016;-76
2022/06/12 04:56:33;;;;;;;10.63;3.08;;;;;;;13.93;100.00;101497.03;5044097;28;20033;-76
2022/06/12 04:59:00;;;;;;;11.65;2.85;;;;;;;14.03;100.00;101500.38;5059592;28;20031;-75
2022/06/12 05:01:26;;;;;;;12.85;3.63;;;;;;;14.15;100.00;101501.72;5063721;28;20379;-75
2022/06/12 05:03:51;;;;;;;18.20;3.75;;;;;;;14.20;100.00;101549.56;5065292;28;20078;-75
2022/06/12 05:06:18;;;;;;;11.67;2.93;;;;;;;14.42;100.00;101533.75;5065239;28;20107;-75
2022/06/12 05:08:44;;;;;;;12.35;3.42;;;;;;;14.42;100.00;101463.91;5041695;28;20561;-75
2022/06/12 05:11:10;;;;;;;13.95;3.58;;;;;;;14.70;100.00;101472.47;5063820;28;20124;-75
2022/06/12 05:13:36;;;;;;;15.18;3.28;;;;;;;14.81;100.00;101441.69;5063596;28;20112;-75
2022/06/12 05:16:01;;;;;;;13.63;3.38;;;;;;;15.04;100.00;101421.09;5065557;28;20028;-76
2022/06/12 05:18:28;;;;;;;18.48;3.15;;;;;;;15.26;100.00;101397.09;5064193;28;20047;-76
2022/06/12 05:20:54;;;;;;;17.75;3.72;;;;;;;15.61;100.00;101428.81;5063529;28;20034;-76
2022/06/12 05:23:21;;;;;;;13.63;3.30;;;;;;;15.92;100.00;101438.75;5047053;28;20111;-74
2022/06/12 05:25:47;;;;;;;12.07;2.83;;;;;;;16.32;100.00;101462.78;5065157;28;20032;-76
2022/06/12 05:28:14;;;;;;;;;;;;;;;16.22;100.00;101344.50;5067620;28;20678;-76
2022/06/12 05:30:39;;;;;;;16.33;3.95;;;;;;;15.89;100.00;101279.38;5067158;28;19951;-75
2022/06/12 05:33:05;;;;;;;18.57;4.53;;;;;;;15.87;100.00;101289.50;5067716;28;20099;-75
2022/06/12 05:35:33;;;;;;;12.45;3.58;;;;;;;16.34;100.00;101326.88;5068534;28;20035;-75
2022/06/12 05:38:00;;;;;;;12.77;3.05;;;;;;;17.20;100.00;101348.66;5067673;28;20027;-75
2022/06/12 05:40:29;;;;;;;16.15;3.13;;;;;;;17.46;100.00;101201.50;5068315;28;20123;-76
2022/06/12 05:42:54;;;;;;;18.92;3.47;;;;;;;18.38;100.00;101203.06;5068578;28;20052;-77
2022/06/12 05:45:24;;;;;;;15.57;4.40;;;;;;;19.08;100.00;101191.97;5067115;28;20170;-74
2022/06/12 05:47:55;;;;;;;14.15;3.80;;;;;;;19.55;100.00;100965.28;5066956;28;20048;-76
2022/06/12 05:50:24;;;;;;;16.02;4.10;;;;;;;20.02;100.00;101096.78;5050486;28;20039;-75
2022/06/12 05:52:49;;;;;;;15.07;3.00;;;;;;;19.29;95.41;100902.16;5058901;28;20055;-76
2022/06/12 05:55:15;;;;;;;15.38;3.35;;;;;;;20.02;91.47;100974.03;5050112;28;20032;-75
2022/06/12 05:57:41;;;;;;;18.33;3.65;;;;;;;19.65;95.83;101037.97;5050430;28;20087;-77
2022/06/12 06:00:13;;;;;;;13.52;3.40;;;;;;;20.74;86.81;101049.59;5067034;28;20128;-77
2022/06/12 06:02:43;;;;;;;11.15;3.28;;;;;;;20.32;83.79;100944.38;5061787;28;20021;-77
2022/06/12 06:05:08;;;;;;;14.35;2.95;;;;;;;20.30;84.12;100991.72;5067838;28;20051;-76
2022/06/12 06:07:35;;;;;;;20.25;3.75;;;;;;;19.24;96.34;101069.75;5066648;28;20119;-77
2022/06/12 06:10:03;;;;;;;10.65;2.70;;;;;;;21.00;88.49;101197.78;5066053;28;20052;-76
2022/06/12 06:12:29;;;;;;;10.32;2.67;;;;;;;21.68;72.96;100982.34;5066862;28;20111;-76
2022/06/12 06:14:54;;;;;;;14.90;2.78;;;;;;;21.52;70.65;100901.47;5049477;28;20687;-76
2022/06/12 06:17:20;;;;;;;11.33;2.80;;;;;;;20.45;73.90;100815.97;5066689;28;20086;-75
2022/06/12 06:19:45;;;;;;;9.60;3.03;;;;;;;20.90;79.95;101068.00;5049983;28;20069;-77
2022/06/12 06:22:15;;;;;;;9.47;3.13;;;;;;;20.20;74.78;100816.84;5050036;28;20776;-76
2022/06/12 06:24:42;;;;;;;8.10;2.83;;;;;;;20.78;80.63;101086.09;5066381;28;20287;-76
2022/06/12 06:27:09;;;;;;;12.38;2.88;;;;;;;20.97;72.26;100927.66;5049953;28;20108;-76
2022/06/12 06:29:36;;;;;;;15.73;4.10;;;;;;;21.62;71.56;101010.44;5066601;28;20033;-75
2022/06/12 06:32:02;;;;;;;15.88;3.22;;;;;;;19.96;79.34;100926.13;5050410;28;20016;-75
2022/06/12 06:34:27;;;;;;;14.13;2.75;;;;;;;20.16;84.33;101081.28;5067450;28;20401;-76
2022/06/12 06:36:53;;;;;;;12.13;2.65;;;;;;;19.97;87.96;101118.28;5067219;28;20020;-77
2022/06/12 06:39:18;;;;;;;12.33;3.23;;;;;;;20.45;84.16;101115.09;5067576;28;20127;-76
2022/06/12 06:41:43;;;;;;;13.20;3.00;;;;;;;20.81;77.03;101036.78;5066275;28;20028;-76
2022/06/12 06:46:53;;;;;;;12.10;2.42;;;;;;;21.11;78.87;101129.19;5066030;28;20031;-77
2022/06/12 06:49:19;;;;;;;17.17;3.27;;;;;;;21.37;71.84;100989.59;5049233;28;20111;-77
2022/06/12 06:51:45;;;;;;;11.20;2.63;;;;;;;21.52;71.48;100991.97;5066112;28;20139;-76
2022/06/12 06:54:10;;;;;;;18.63;3.73;;;;;;;21.21;75.55;101031.81;5067325;28;20100;-77
2022/06/12 06:56:35;;;;;;;13.50;3.60;;;;;;;21.31;80.37;101167.03;5066002;28;20046;-76
2022/06/12 06:59:01;;;;;;;9.03;3.40;;;;;;;21.13;77.54;101075.53;5066093;28;20239;-76
2022/06/12 07:01:26;;;;;;;13.33;3.63;;;;;;;21.01;76.75;101026.56;5067048;28;20020;-77
2022/06/12 07:03:53;;;;;;;15.33;2.87;;;;;;;20.64;80.01;101026.50;5049176;28;20525;-76
2022/06/12 07:06:19;;;;;;;8.55;3.15;;;;;;;20.57;78.97;101009.47;5065611;28;20447;-76
2022/06/12 07:08:44;;;;;;;11.15;2.97;;;;;;;20.38;83.20;101084.47;5065723;28;20836;-78
2022/06/12 07:11:10;;;;;;;11.87;3.27;;;;;;;20.59;83.43;101137.56;5065923;28;20036;-75
2022/06/12 07:13:35;;;;;;;23.43;5.80;;;;;;;20.28;83.53;101058.91;5048915;28;20025;-76
2022/06/12 07:16:00;;;;;;;13.40;2.90;;;;;;;21.07;81.78;101172.28;5066919;28;20365;-77
2022/06/12 07:18:26;;;;;;;8.03;2.57;;;;;;;20.96;78.39;101034.56;5066041;28;20381;-77
2022/06/12 07:20:54;;;;;;;12.33;3.00;;;;;;;20.88;79.49;101067.41;5065794;28;20089;-76
2022/06/12 07:23:22;;;;;;;13.52;3.80;;;;;;;20.85;83.07;101136.53;5057175;28;20028;-78
2022/06/12 07:25:53;;;;;;;13.93;3.78;;;;;;;20.93;81.52;101099.31;5065942;28;20053;-78
2022/06/12 07:28:19;;;;;;;9.73;2.80;;;;;;;21.01;79.51;101052.91;5066399;28;20085;-76
2022/06/12 07:30:45;;;;;;;9.23;2.70;;;;;;;21.32;75.39;101046.50;5065359;28;20027;-76
2022/06/12 07:33:12;;;;;;;10.13;3.15;;;;;;;21.28;78.07;101096.88;5066661;28;20033;-77
2022/06/12 07:35:40;;;;;;;10.98;4.07;;;;;;;21.35;73.94;101008.00;5065210;28;20024;-78
2022/06/12 07:38:06;;;;;;;13.15;2.85;;;;;;;22.13;67.73;100998.22;5065502;28;20025;-77
2022/06/12 07:40:39;;;;;;;9.88;2.50;;;;;;;21.93;69.14;101001.22;5065107;28;20027;-77
2022/06/12 07:43:04;;;;;;;9.00;3.05;;;;;;;22.25;64.83;100955.56;5065285;28;20032;-77
2022/06/12 07:45:30;;;;;;;9.75;2.60;;;;;;;21.65;64.01;100788.00;5048579;28;20031;-78
2022/06/12 07:47:56;;;;;;;11.48;2.22;;;;;;;22.05;65.11;100912.34;5066433;28;20056;-78
2022/06/12 07:50:22;;;;;;;10.00;2.75;;;;;;;21.61;66.75;100867.50;5069073;28;20036;-78
2022/06/12 07:52:48;;;;;;;13.00;3.20;;;;;;;21.78;68.86;101004.38;5066512;28;20496;-77
2022/06/12 07:55:16;;;;;;;16.00;2.50;;;;;;;21.50;62.86;100755.88;5048322;28;20291;-77
2022/06/12 07:57:42;;;;;;;10.73;2.65;;;;;;;21.74;64.05;100885.50;5066696;28;20505;-77
2022/06/12 08:00:10;;;;;;;10.48;3.13;;;;;;;21.19;63.80;100756.13;5067787;28;20017;-77
2022/06/12 08:02:41;;;;;;;7.05;2.42;;;;;;;21.76;64.05;100880.66;5065108;28;20067;-77
2022/06/12 08:05:07;;;;;;;7.85;1.70;;;;;;;22.24;60.23;100839.72;5064564;28;20039;-77
2022/06/12 08:07:33;;;;;;;7.82;2.65;;;;;;;21.89;58.66;100749.97;5066009;28;20024;-76
2022/06/12 08:09:59;;;;;;;;;;;;;;;21.59;59.35;100769.13;5064994;28;20079;-78
2022/06/12 08:12:24;;;;;;;6.35;2.20;;;;;;;22.09;60.10;100921.72;5064754;28;19962;-77
2022/06/12 08:14:49;;;;;;;10.87;3.03;;;;;;;22.58;63.86;101101.09;5065798;28;20040;-76
2022/06/12 08:17:15;;;;;;;10.30;2.37;;;;;;;22.94;59.53;101007.53;5064523;28;20419;-76
2022/06/12 08:22:24;;;;;;;8.35;2.42;;;;;;;23.02;57.00;100921.13;5065597;28;20289;-79
2022/06/12 08:24:50;;;;;;;7.72;2.05;;;;;;;23.56;55.19;100952.44;5064908;28;20024;-77
2022/06/12 08:27:16;;;;;;;11.45;2.17;;;;;;;23.25;56.09;100918.34;5067972;28;20032;-77
2022/06/12 08:29:42;;;;;;;5.38;1.95;;;;;;;23.77;54.76;100961.84;5065052;28;20100;-76
2022/06/12 08:32:14;;;;;;;11.73;2.53;;;;;;;23.21;53.55;100766.53;5064365;28;20039;-76
2022/06/12 08:34:45;;;;;;;11.88;2.25;;;;;;;23.36;55.96;100916.59;5041945;28;20032;-77
2022/06/12 08:37:16;;;;;;;7.45;2.45;;;;;;;23.51;60.46;101120.44;5065789;28;20039;-77
2022/06/12 08:39:42;;;;;;;14.82;2.28;;;;;;;23.91;56.61;101014.16;5057651;28;20028;-76
2022/06/12 08:42:17;;;;;;;10.25;2.53;;;;;;;24.30;55.00;101022.44;5063601;28;20363;-76
2022/06/12 08:44:54;;;;;;;8.07;1.70;;;;;;;25.15;54.15;101132.50;5058607;28;20040;-77
2022/06/12 08:47:31;;;;;;;10.50;2.58;;;;;;;25.09;54.95;101103.44;5065092;28;20428;-75
2022/06/12 08:50:12;;;;;;;9.70;1.98;;;;;;;25.53;52.11;101037.94;5063396;28;20409;-74
2022/06/12 08:52:46;;;;;;;9.18;2.70;;;;;;;25.30;50.18;100879.72;5070259;28;20107;-76
2022/06/12 08:55:24;;;;;;;7.13;2.13;;;;;;;25.24;52.00;100991.69;5059797;28;20036;-75
2022/06/12 08:57:57;;;;;;;12.18;2.80;;;;;;;24.41;50.23;100688.66;5061023;28;20038;-77
2022/06/12 09:00:31;;;;;;;6.93;1.95;;;;;;;24.77;53.39;100959.38;5056905;28;20029;-77
2022/06/12 09:02:56;;;;;;;10.05;3.03;;;;;;;24.60;50.81;100756.59;5066008;28;20060;-76
2022/06/12 09:05:47;;;;;;;14.82;2.83;;;;;;;24.81;52.62;100913.25;5064214;28;20028;-77
2022/06/12 09:08:26;;;;;;;6.50;2.20;;;;;;;25.58;53.59;101081.72;5059144;28;20132;-77
2022/06/12 09:11:01;;;;;;;10.75;2.47;;;;;;;25.60;52.47;101019.44;5089728;22;20076;-74
2022/06/12 09:13:32;;;;;;;7.32;2.00;;;;;;;25.56;51.43;100952.69;5066959;28;20111;-74
2022/06/12 09:16:15;;;;;;;7.88;2.15;;;;;;;25.39;49.08;100747.81;5067905;28;20544;-74
2022/06/12 09:18:58;;;;;;;13.30;2.75;;;;;;;25.44;48.88;100757.97;5084058;28;20079;-74
2022/06/12 09:21:35;;;;;;;13.88;2.63;;;;;;;25.55;48.58;100778.03;5058278;28;20333;-74
2022/06/12 09:24:01;;;;;;;6.75;2.10;;;;;;;25.80;49.79;100906.72;5068150;28;20528;-74
2022/06/12 09:26:34;;;;;;;10.33;2.37;;;;;;;25.61;49.15;100846.13;5067684;28;20056;-73
2022/06/12 09:29:02;;;;;;;10.55;2.10;;;;;;;26.57;52.60;101170.16;5066874;28;20032;-74
2022/06/12 09:31:37;;;;;;;11.48;2.30;;;;;;;25.53;50.11;100816.53;5067820;28;20012;-74
2022/06/12 09:34:25;;;;;;;9.15;2.42;;;;;;;25.58;48.64;100739.22;5068207;28;20469;-74
2022/06/12 09:40:38;;;;;;;13.45;2.92;;;;;;;25.45;50.43;100786.94;5067894;28;20028;-73
2022/06/12 09:43:22;;;;;;;9.90;2.42;;;;;;;25.66;48.57;100750.50;5068274;28;20227;-73
2022/06/12 09:46:02;;;;;;;12.10;2.55;;;;;;;25.82;48.56;100773.28;5067680;28;20030;-73
2022/06/12 09:48:59;;;;;;;6.70;2.05;;;;;;;25.19;48.60;100654.75;5068106;28;20043;-74
2022/06/12 09:51:36;;;;;;;12.52;2.38;;;;;;;25.42;49.63;100803.88;5065985;28;20051;-73
2022/06/12 09:54:17;;;;;;;6.88;1.95;;;;;;;25.87;48.58;100835.41;5067786;28;20028;-73
2022/06/12 09:57:01;;;;;;;7.95;2.53;;;;;;;25.58;48.68;100780.22;5067882;28;20059;-73
2022/06/12 09:59:34;;;;;;;10.30;2.08;;;;;;;25.95;49.14;100884.16;5067713;28;20119;-73
2022/06/12 10:02:22;;;;;;;7.47;2.60;;;;;;;25.83;48.04;100764.00;5066359;28;20436;-74
2022/06/12 10:04:56;;;;;;;8.75;2.35;;;;;;;26.17;48.69;100799.22;5066413;28;20355;-74
2022/06/12 10:07:30;;;;;;;9.05;2.47;;;;;;;26.73;49.43;101020.50;5067353;28;20119;-74
2022/06/12 10:10:13;;;;;;;9.23;2.47;;;;;;;26.38;46.73;100766.50;5067429;28;20029;-73
2022/06/12 10:12:44;;;;;;;10.75;2.20;;;;;;;26.41;47.48;100816.06;5058725;28;20034;-73
2022/06/12 10:15:23;;;;;;;10.52;2.58;;;;;;;25.52;48.07;100637.25;5067255;28;20028;-74
2022/06/12 10:18:06;;;;;;;11.52;1.60;;;;;;;26.34;47.49;100818.22;5044188;28;20509;-74
2022/06/12 10:20:38;;;;;;;9.63;2.30;;;;;;;25.39;47.62;100578.41;5065263;28;20082;-74
2022/06/12 10:23:04;;;;;;;8.00;2.75;;;;;;;27.23;48.88;101038.38;5066136;28;20036;-74
2022/06/12 10:25:37;;;;;;;9.70;2.55;;;;;;;26.87;45.65;100749.69;5065649;28;20016;-74
2022/06/12 10:28:17;;;;;;;7.57;1.70;;;;;;;26.19;44.41;100471.47;5066036;28;20167;-74
2022/06/12 10:31:03;;;;;;;9.02;2.17;;;;;;;25.57;48.41;100639.19;5059561;28;20406;-74
2022/06/12 10:33:42;;;;;;;5.50;2.33;;;;;;;26.69;48.71;100915.31;5067081;28;20036;-74
2022/06/12 10:36:28;;;;;;;6.53;2.42;;;;;;;26.07;47.28;100671.44;5066863;28;20028;-74
2022/06/12 10:39:08;;;;;;;;;;;;;;;26.07;49.78;100846.50;5061405;28;20040;-73
2022/06/12 10:41:47;;;;;;;9.38;2.00;;;;;;;26.70;46.47;100752.69;5066512;28;19923;-74
2022/06/12 10:44:38;;;;;;;8.98;2.55;;;;;;;26.02;49.10;100761.69;5065212;28;20173;-74
2022/06/12 10:47:24;;;;;;;12.98;2.38;;;;;;;25.86;51.46;100880.22;5065803;28;20560;-74
2022/06/12 10:50:15;;;;;;;9.13;1.85;;;;;;;25.80;48.80;100701.63;5059734;28;20074;-74
2022/06/12 10:53:10;;;;;;;8.30;2.00;;;;;;;25.59;49.32;100672.50;5060046;28;20028;-74
2022/06/12 10:55:59;;;;;;;;;;;;;;;26.43;52.45;101019.16;5060386;28;20040;-74
2022/06/12 10:58:43;;;;;;;8.88;2.92;;;;;;;24.59;51.82;100533.88;5066489;28;19920;-74
2022/06/12 11:01:19;;;;;;;8.88;2.88;;;;;;;24.20;56.34;100693.06;5066373;28;20560;-73
2022/06/12 11:03:52;;;;;;;11.18;2.72;;;;;;;23.91;58.53;100714.25;5060756;28;20511;-73
2022/06/12 11:06:26;;;;;;;6.15;1.83;;;;;;;24.04;61.48;100856.75;5065373;28;20033;-73
2022/06/12 11:09:06;;;;;;;6.00;2.42;;;;;;;23.94;57.46;100716.47;5065633;28;20127;-73
2022/06/12 11:11:35;;;;;;;10.52;2.80;;;;;;;25.26;54.99;100928.56;5048607;28;20032;-73
2022/06/12 11:14:06;;;;;;;7.03;2.75;;;;;;;26.45;52.09;100994.25;5066568;28;20028;-73
2022/06/12 11:16:55;;;;;;;9.18;2.53;;;;;;;27.50;49.69;101053.81;5066042;28;20845;-73
2022/06/12 11:19:40;;;;;;;8.13;2.83;;;;;;;27.45;47.30;100935.91;5066533;28;20035;-74
2022/06/12 11:22:30;;;;;;;7.82;2.53;;;;;;;27.11;44.33;100629.44;5066410;28;20035;-73
2022/06/12 11:25:11;;;;;;;6.80;2.28;;;;;;;26.30;46.89;100614.59;5060396;28;20109;-74
2022/06/12 11:27:50;;;;;;;7.35;1.80;;;;;;;26.02;50.02;100772.63;5066382;28;20020;-73
2022/06/12 11:30:36;;;;;;;7.28;1.75;;;;;;;25.55;48.23;100564.81;5064814;28;20032;-74
2022/06/12 11:33:32;;;;;;;11.02;2.20;;;;;;;25.16;52.05;100712.63;5066353;28;20029;-73
2022/06/12 11:36:04;;;;;;;11.10;3.28;;;;;;;24.76;54.08;100689.34;5064570;28;20059;-74
2022/06/12 11:39:14;;;;;;;5.65;1.95;;;;;;;25.64;48.72;100583.19;5064904;28;20059;-73
2022/06/12 11:41:42;;;;;;;8.20;1.95;;;;;;;26.98;47.61;100849.97;5060123;28;20036;-73
2022/06/12 11:44:16;;;;;;;7.28;2.13;;;;;;;26.63;45.34;100623.44;5064673;28;20020;-73
2022/06/12 11:46:54;;;;;;;8.40;2.75;;;;;;;27.41;45.37;100820.47;5059522;28;20028;-73
2022/06/12 11:49:23;;;;;;;9.77;1.85;;;;;;;27.23;44.57;100695.78;5064441;28;20169;-74
2022/06/12 11:51:57;;;;;;;8.02;2.20;;;;;;;27.36;45.10;100762.91;5047664;28;20579;-74
2022/06/12 11:54:55;;;;;;;6.72;2.22;;;;;;;26.08;44.76;100446.03;5064069;28;20051;-74
2022/06/12 11:57:31;;;;;;;5.00;1.50;;;;;;;26.27;42.98;100355.16;5064228;28;20079;-74
2022/06/12 12:00:03;;;;;;;4.85;1.42;;;;;;;26.43;43.67;100490.88;5047530;28;20024;-74